createdAt,value
2023-03-26T00:00:54.000Z,81.03
2023-03-26T00:01:52.000Z,80.90
2023-03-26T00:02:52.000Z,81.04
2023-03-26T00:03:52.000Z,81.08
2023-03-26T00:04:52.000Z,81.13
2023-03-26T00:06:04.000Z,80.90
2023-03-26T00:06:53.000Z,80.61
2023-03-26T00:07:52.000Z,81.10
2023-03-26T00:08:54.000Z,80.90
2023-03-26T00:09:52.000Z,81.16
2023-03-26T00:10:52.000Z,80.87
2023-03-26T00:11:52.000Z,80.67
2023-03-26T00:12:52.000Z,80.87
2023-03-26T00:13:56.000Z,80.92
2023-03-26T00:14:52.000Z,81.41
2023-03-26T00:15:52.000Z,81.03
2023-03-26T00:16:52.000Z,80.70
2023-03-26T00:17:53.000Z,80.83
2023-03-26T00:18:52.000Z,80.60
2023-03-26T00:19:52.000Z,80.53
2023-03-26T00:20:52.000Z,80.73
2023-03-26T00:21:52.000Z,80.72
2023-03-26T00:22:54.000Z,80.52
2023-03-26T00:23:58.000Z,81.05
2023-03-26T00:24:52.000Z,80.58
2023-03-26T00:25:52.000Z,80.37
2023-03-26T00:26:52.000Z,80.31
2023-03-26T00:27:52.000Z,80.31
2023-03-26T00:28:53.000Z,80.76
2023-03-26T00:29:55.000Z,80.48
2023-03-26T00:30:58.000Z,80.84
2023-03-26T00:31:52.000Z,80.37
2023-03-26T00:32:52.000Z,80.68
2023-03-26T00:33:55.000Z,80.64
2023-03-26T00:34:53.000Z,80.31
2023-03-26T00:35:55.000Z,80.96
2023-03-26T00:36:53.000Z,80.88
2023-03-26T00:37:52.000Z,80.38
2023-03-26T00:38:53.000Z,80.32
2023-03-26T00:39:53.000Z,80.22
2023-03-26T00:40:53.000Z,80.16
2023-03-26T00:41:53.000Z,80.97
2023-03-26T00:42:52.000Z,81.14
2023-03-26T00:43:56.000Z,81.56
2023-03-26T00:44:56.000Z,81.46
2023-03-26T00:45:53.000Z,80.63
2023-03-26T00:46:52.000Z,81.05
2023-03-26T00:47:52.000Z,80.61
2023-03-26T00:48:53.000Z,80.69
2023-03-26T00:49:53.000Z,80.66
2023-03-26T00:50:52.000Z,80.56
2023-03-26T00:51:52.000Z,80.50
2023-03-26T00:52:54.000Z,80.87
2023-03-26T00:53:52.000Z,81.32
2023-03-26T00:54:53.000Z,80.78
2023-03-26T00:55:52.000Z,80.98
2023-03-26T00:56:54.000Z,81.19
2023-03-26T00:57:54.000Z,80.94
2023-03-26T00:58:52.000Z,80.65
2023-03-26T00:59:52.000Z,81.28
2023-03-26T01:00:58.000Z,82.10
2023-03-26T01:01:54.000Z,81.89
2023-03-26T01:02:54.000Z,81.32
2023-03-26T01:04:17.000Z,81.58
2023-03-26T01:04:57.000Z,81.08
2023-03-26T01:06:01.000Z,81.50
2023-03-26T01:06:53.000Z,82.17
2023-03-26T01:07:52.000Z,82.17
2023-03-26T01:08:54.000Z,82.14
2023-03-26T01:09:56.000Z,82.11
2023-03-26T01:10:54.000Z,82.17
2023-03-26T01:11:52.000Z,82.00
2023-03-26T01:12:52.000Z,81.54
2023-03-26T01:14:02.000Z,81.34
2023-03-26T01:14:56.000Z,81.39
2023-03-26T01:15:52.000Z,81.51
2023-03-26T01:16:55.000Z,82.16
2023-03-26T01:17:56.000Z,81.72
2023-03-26T01:18:54.000Z,82.46
2023-03-26T01:20:17.000Z,82.57
2023-03-26T01:20:57.000Z,82.63
2023-03-26T01:21:52.000Z,82.49
2023-03-26T01:22:59.000Z,82.09
2023-03-26T01:24:04.000Z,82.44
2023-03-26T01:24:52.000Z,82.24
2023-03-26T01:26:12.000Z,82.06
2023-03-26T01:27:12.000Z,82.91
2023-03-26T01:27:54.000Z,82.18
2023-03-26T01:28:55.000Z,81.91
2023-03-26T01:30:07.000Z,82.33
2023-03-26T01:31:06.000Z,82.16
2023-03-26T01:32:02.000Z,81.95
2023-03-26T01:33:00.000Z,81.73
2023-03-26T01:34:01.000Z,82.62
2023-03-26T01:35:04.000Z,81.90
2023-03-26T01:36:15.000Z,81.76
2023-03-26T01:37:12.000Z,82.04
2023-03-26T01:38:02.000Z,82.35
2023-03-26T01:39:10.000Z,82.38
2023-03-26T01:39:57.000Z,81.81
2023-03-26T01:41:08.000Z,81.64
2023-03-26T01:41:56.000Z,81.74
2023-03-26T01:43:03.000Z,81.66
2023-03-26T01:44:12.000Z,82.28
2023-03-26T01:45:02.000Z,81.87
2023-03-26T01:45:52.000Z,81.65
2023-03-26T01:46:53.000Z,81.60
2023-03-26T01:47:53.000Z,82.04
2023-03-26T01:48:52.000Z,81.81
2023-03-26T01:49:52.000Z,82.25
2023-03-26T01:50:54.000Z,82.77
2023-03-26T01:51:54.000Z,82.53
2023-03-26T01:52:52.000Z,82.73
2023-03-26T01:53:53.000Z,83.00
2023-03-26T01:54:54.000Z,82.12
2023-03-26T01:56:01.000Z,82.88
2023-03-26T01:57:04.000Z,82.22
2023-03-26T01:58:16.000Z,82.19
2023-03-26T01:59:14.000Z,82.80
2023-03-26T02:00:02.000Z,82.68
2023-03-26T02:01:02.000Z,82.45
2023-03-26T02:02:04.000Z,82.08
2023-03-26T02:03:03.000Z,82.93
2023-03-26T02:04:04.000Z,83.26
2023-03-26T02:05:05.000Z,83.60
2023-03-26T02:06:02.000Z,82.95
2023-03-26T02:07:01.000Z,82.83
2023-03-26T02:08:09.000Z,82.54
2023-03-26T02:09:00.000Z,82.99
2023-03-26T02:09:59.000Z,83.80
2023-03-26T02:10:58.000Z,84.66
2023-03-26T02:11:53.000Z,84.98
2023-03-26T02:12:53.000Z,84.10
2023-03-26T02:13:52.000Z,84.04
2023-03-26T02:14:52.000Z,84.55
2023-03-26T02:15:58.000Z,83.78
2023-03-26T02:16:52.000Z,83.61
2023-03-26T02:17:52.000Z,84.35
2023-03-26T02:18:54.000Z,84.06
2023-03-26T02:19:53.000Z,84.28
2023-03-26T02:20:52.000Z,84.23
2023-03-26T02:21:52.000Z,84.41
2023-03-26T02:22:52.000Z,85.27
2023-03-26T02:24:01.000Z,84.71
2023-03-26T02:24:52.000Z,84.08
2023-03-26T02:25:52.000Z,83.95
2023-03-26T02:26:52.000Z,83.97
2023-03-26T02:27:52.000Z,83.76
2023-03-26T02:28:52.000Z,83.52
2023-03-26T02:29:52.000Z,83.78
2023-03-26T02:30:56.000Z,83.58
2023-03-26T02:31:52.000Z,83.30
2023-03-26T02:32:52.000Z,83.41
2023-03-26T02:33:52.000Z,83.09
2023-03-26T02:34:51.000Z,83.16
2023-03-26T02:35:52.000Z,83.07
2023-03-26T02:36:52.000Z,82.71
2023-03-26T02:37:52.000Z,82.72
2023-03-26T02:38:53.000Z,82.76
2023-03-26T02:39:52.000Z,82.96
2023-03-26T02:40:53.000Z,83.23
2023-03-26T02:41:52.000Z,83.31
2023-03-26T02:42:52.000Z,82.80
2023-03-26T02:43:51.000Z,82.74
2023-03-26T02:44:52.000Z,82.73
2023-03-26T02:45:52.000Z,82.58
2023-03-26T02:46:52.000Z,83.03
2023-03-26T02:47:51.000Z,82.59
2023-03-26T02:48:52.000Z,82.69
2023-03-26T02:49:52.000Z,82.55
2023-03-26T02:50:52.000Z,82.52
2023-03-26T02:51:54.000Z,82.32
2023-03-26T02:52:52.000Z,82.39
2023-03-26T02:53:52.000Z,82.82
2023-03-26T02:54:52.000Z,83.10
2023-03-26T02:55:51.000Z,83.02
2023-03-26T02:56:51.000Z,82.77
2023-03-26T02:57:52.000Z,82.44
2023-03-26T02:58:52.000Z,82.62
2023-03-26T02:59:52.000Z,82.37
2023-03-26T03:00:55.000Z,82.25
2023-03-26T03:01:52.000Z,83.11
2023-03-26T03:02:52.000Z,82.92
2023-03-26T03:03:52.000Z,83.07
2023-03-26T03:04:59.000Z,83.02
2023-03-26T03:05:53.000Z,82.91
2023-03-26T03:06:56.000Z,82.51
2023-03-26T03:07:57.000Z,82.43
2023-03-26T03:08:52.000Z,82.61
2023-03-26T03:09:51.000Z,82.94
2023-03-26T03:11:01.000Z,82.83
2023-03-26T03:11:52.000Z,82.83
2023-03-26T03:12:52.000Z,82.49
2023-03-26T03:13:52.000Z,82.76
2023-03-26T03:14:52.000Z,82.75
2023-03-26T03:15:52.000Z,82.56
2023-03-26T03:16:52.000Z,83.17
2023-03-26T03:17:52.000Z,83.01
2023-03-26T03:18:57.000Z,82.74
2023-03-26T03:19:51.000Z,82.72
2023-03-26T03:20:52.000Z,82.96
2023-03-26T03:21:52.000Z,82.64
2023-03-26T03:22:51.000Z,82.81
2023-03-26T03:23:55.000Z,83.12
2023-03-26T03:24:56.000Z,82.72
2023-03-26T03:25:52.000Z,82.86
2023-03-26T03:26:55.000Z,82.53
2023-03-26T03:27:52.000Z,82.47
2023-03-26T03:28:53.000Z,82.67
2023-03-26T03:29:52.000Z,82.90
2023-03-26T03:30:52.000Z,82.63
2023-03-26T03:31:52.000Z,82.92
2023-03-26T03:32:52.000Z,83.27
2023-03-26T03:33:52.000Z,82.88
2023-03-26T03:34:52.000Z,82.99
2023-03-26T03:35:52.000Z,82.75
2023-03-26T03:36:52.000Z,83.08
2023-03-26T03:37:52.000Z,82.88
2023-03-26T03:38:52.000Z,83.15
2023-03-26T03:39:52.000Z,82.85
2023-03-26T03:40:54.000Z,83.06
2023-03-26T03:41:52.000Z,83.52
2023-03-26T03:42:52.000Z,83.36
2023-03-26T03:43:52.000Z,83.07
2023-03-26T03:44:52.000Z,83.02
2023-03-26T03:45:52.000Z,82.75
2023-03-26T03:46:54.000Z,82.83
2023-03-26T03:47:53.000Z,82.83
2023-03-26T03:48:52.000Z,83.32
2023-03-26T03:49:52.000Z,83.60
2023-03-26T03:50:54.000Z,83.50
2023-03-26T03:51:52.000Z,83.74
2023-03-26T03:52:52.000Z,83.93
2023-03-26T03:53:54.000Z,83.43
2023-03-26T03:54:53.000Z,83.14
2023-03-26T03:55:54.000Z,82.95
2023-03-26T03:56:52.000Z,83.24
2023-03-26T03:57:53.000Z,83.15
2023-03-26T03:58:52.000Z,83.33
2023-03-26T03:59:52.000Z,83.87
2023-03-26T04:00:53.000Z,83.45
2023-03-26T04:01:51.000Z,83.48
2023-03-26T04:02:52.000Z,83.26
2023-03-26T04:03:51.000Z,83.36
2023-03-26T04:04:51.000Z,83.80
2023-03-26T04:05:53.000Z,84.15
2023-03-26T04:06:51.000Z,83.79
2023-03-26T04:07:51.000Z,83.76
2023-03-26T04:08:51.000Z,83.59
2023-03-26T04:09:51.000Z,83.68
2023-03-26T04:10:51.000Z,83.64
2023-03-26T04:11:51.000Z,83.67
2023-03-26T04:12:51.000Z,83.95
2023-03-26T04:13:51.000Z,83.89
2023-03-26T04:14:52.000Z,83.62
2023-03-26T04:15:51.000Z,83.85
2023-03-26T04:16:51.000Z,83.82
2023-03-26T04:17:51.000Z,83.63
2023-03-26T04:18:51.000Z,83.52
2023-03-26T04:19:53.000Z,83.80
2023-03-26T04:20:54.000Z,83.35
2023-03-26T04:21:52.000Z,83.51
2023-03-26T04:22:52.000Z,83.74
2023-03-26T04:23:52.000Z,83.76
2023-03-26T04:24:52.000Z,84.02
2023-03-26T04:25:52.000Z,84.18
2023-03-26T04:26:51.000Z,84.10
2023-03-26T04:27:54.000Z,84.20
2023-03-26T04:28:58.000Z,83.97
2023-03-26T04:29:51.000Z,83.85
2023-03-26T04:30:54.000Z,83.90
2023-03-26T04:31:57.000Z,84.12
2023-03-26T04:32:52.000Z,83.99
2023-03-26T04:34:05.000Z,83.96
2023-03-26T04:34:51.000Z,83.72
2023-03-26T04:35:53.000Z,83.69
2023-03-26T04:36:54.000Z,83.69
2023-03-26T04:37:53.000Z,83.62
2023-03-26T04:38:52.000Z,83.63
2023-03-26T04:39:52.000Z,83.58
2023-03-26T04:40:51.000Z,83.83
2023-03-26T04:41:52.000Z,83.92
2023-03-26T04:42:53.000Z,83.65
2023-03-26T04:43:52.000Z,83.86
2023-03-26T04:44:51.000Z,83.83
2023-03-26T04:45:52.000Z,83.68
2023-03-26T04:46:51.000Z,83.75
2023-03-26T04:47:51.000Z,83.96
2023-03-26T04:48:52.000Z,83.92
2023-03-26T04:49:51.000Z,84.02
2023-03-26T04:50:51.000Z,84.00
2023-03-26T04:51:52.000Z,83.66
2023-03-26T04:52:54.000Z,83.66
2023-03-26T04:53:55.000Z,83.69
2023-03-26T04:54:51.000Z,83.79
2023-03-26T04:55:58.000Z,83.78
2023-03-26T04:56:59.000Z,83.83
2023-03-26T04:57:55.000Z,83.87
2023-03-26T04:58:58.000Z,83.92
2023-03-26T04:59:51.000Z,84.05
2023-03-26T05:00:51.000Z,84.08
2023-03-26T05:01:52.000Z,84.07
2023-03-26T05:02:54.000Z,84.10
2023-03-26T05:03:52.000Z,84.07
2023-03-26T05:04:51.000Z,83.74
2023-03-26T05:05:51.000Z,84.06
2023-03-26T05:06:52.000Z,83.83
2023-03-26T05:07:52.000Z,84.16
2023-03-26T05:08:52.000Z,83.90
2023-03-26T05:09:51.000Z,83.83
2023-03-26T05:10:51.000Z,83.82
2023-03-26T05:11:52.000Z,84.01
2023-03-26T05:12:51.000Z,84.37
2023-03-26T05:13:51.000Z,84.44
2023-03-26T05:14:51.000Z,84.04
2023-03-26T05:15:51.000Z,83.89
2023-03-26T05:16:52.000Z,84.48
2023-03-26T05:17:53.000Z,84.19
2023-03-26T05:18:53.000Z,84.42
2023-03-26T05:19:51.000Z,84.34
2023-03-26T05:20:51.000Z,84.42
2023-03-26T05:21:51.000Z,84.10
2023-03-26T05:22:52.000Z,83.94
2023-03-26T05:23:51.000Z,84.04
2023-03-26T05:24:51.000Z,84.04
2023-03-26T05:25:52.000Z,84.05
2023-03-26T05:26:51.000Z,83.96
2023-03-26T05:27:51.000Z,84.20
2023-03-26T05:28:51.000Z,84.05
2023-03-26T05:29:58.000Z,84.13
2023-03-26T05:30:52.000Z,84.30
2023-03-26T05:31:51.000Z,84.46
2023-03-26T05:32:51.000Z,84.33
2023-03-26T05:33:51.000Z,84.23
2023-03-26T05:34:52.000Z,84.21
2023-03-26T05:36:02.000Z,84.22
2023-03-26T05:36:52.000Z,84.19
2023-03-26T05:37:52.000Z,84.40
2023-03-26T05:38:52.000Z,84.22
2023-03-26T05:39:53.000Z,84.04
2023-03-26T05:40:56.000Z,84.37
2023-03-26T05:41:52.000Z,84.23
2023-03-26T05:42:51.000Z,84.28
2023-03-26T05:43:51.000Z,84.38
2023-03-26T05:44:51.000Z,84.39
2023-03-26T05:45:52.000Z,84.73
2023-03-26T05:46:52.000Z,84.62
2023-03-26T05:47:53.000Z,84.58
2023-03-26T05:48:52.000Z,84.68
2023-03-26T05:49:52.000Z,84.77
2023-03-26T05:50:54.000Z,84.82
2023-03-26T05:51:51.000Z,85.01
2023-03-26T05:52:52.000Z,84.92
2023-03-26T05:53:52.000Z,84.96
2023-03-26T05:54:51.000Z,84.70
2023-03-26T05:55:57.000Z,84.66
2023-03-26T05:56:52.000Z,84.80
2023-03-26T05:57:52.000Z,84.67
2023-03-26T05:58:52.000Z,84.93
2023-03-26T05:59:52.000Z,85.41
2023-03-26T06:00:57.000Z,84.94
2023-03-26T06:01:53.000Z,85.09
2023-03-26T06:02:53.000Z,84.88
2023-03-26T06:03:52.000Z,85.19
2023-03-26T06:04:52.000Z,85.13
2023-03-26T06:05:52.000Z,85.04
2023-03-26T06:06:53.000Z,85.03
2023-03-26T06:07:52.000Z,84.92
2023-03-26T06:08:52.000Z,84.97
2023-03-26T06:09:52.000Z,85.24
2023-03-26T06:10:58.000Z,84.98
2023-03-26T06:11:52.000Z,84.68
2023-03-26T06:12:52.000Z,84.72
2023-03-26T06:13:52.000Z,84.67
2023-03-26T06:14:52.000Z,84.75
2023-03-26T06:15:52.000Z,84.89
2023-03-26T06:16:52.000Z,84.78
2023-03-26T06:17:52.000Z,84.92
2023-03-26T06:18:53.000Z,85.00
2023-03-26T06:19:52.000Z,84.90
2023-03-26T06:20:52.000Z,84.82
2023-03-26T06:21:52.000Z,84.63
2023-03-26T06:22:52.000Z,84.56
2023-03-26T06:23:52.000Z,84.80
2023-03-26T06:24:52.000Z,84.93
2023-03-26T06:25:52.000Z,84.95
2023-03-26T06:26:52.000Z,84.62
2023-03-26T06:27:52.000Z,84.65
2023-03-26T06:28:52.000Z,84.95
2023-03-26T06:29:52.000Z,84.80
2023-03-26T06:30:52.000Z,84.57
2023-03-26T06:31:52.000Z,84.53
2023-03-26T06:32:52.000Z,84.58
2023-03-26T06:33:52.000Z,84.30
2023-03-26T06:34:51.000Z,84.42
2023-03-26T06:35:52.000Z,84.35
2023-03-26T06:36:51.000Z,84.13
2023-03-26T06:37:51.000Z,84.14
2023-03-26T06:38:51.000Z,84.33
2023-03-26T06:39:51.000Z,84.49
2023-03-26T06:40:52.000Z,84.41
2023-03-26T06:41:51.000Z,84.53
2023-03-26T06:42:51.000Z,84.70
2023-03-26T06:43:52.000Z,84.33
2023-03-26T06:44:51.000Z,84.59
2023-03-26T06:45:51.000Z,84.60
2023-03-26T06:46:51.000Z,84.19
2023-03-26T06:47:51.000Z,84.17
2023-03-26T06:48:52.000Z,84.37
2023-03-26T06:49:51.000Z,84.39
2023-03-26T06:50:52.000Z,84.34
2023-03-26T06:51:51.000Z,84.17
2023-03-26T06:52:55.000Z,83.94
2023-03-26T06:53:51.000Z,84.15
2023-03-26T06:54:51.000Z,83.99
2023-03-26T06:55:52.000Z,83.94
2023-03-26T06:56:52.000Z,83.91
2023-03-26T06:57:53.000Z,84.12
2023-03-26T06:58:51.000Z,83.90
2023-03-26T06:59:51.000Z,83.56
2023-03-26T07:00:52.000Z,83.91
2023-03-26T07:01:51.000Z,83.77
2023-03-26T07:02:52.000Z,83.84
2023-03-26T07:03:51.000Z,83.99
2023-03-26T07:04:52.000Z,83.86
2023-03-26T07:05:51.000Z,84.01
2023-03-26T07:06:51.000Z,83.96
2023-03-26T07:07:51.000Z,84.05
2023-03-26T07:08:53.000Z,83.91
2023-03-26T07:09:51.000Z,83.91
2023-03-26T07:10:51.000Z,83.71
2023-03-26T07:11:51.000Z,83.71
2023-03-26T07:12:51.000Z,83.96
2023-03-26T07:13:51.000Z,83.78
2023-03-26T07:14:51.000Z,83.87
2023-03-26T07:15:51.000Z,83.76
2023-03-26T07:16:51.000Z,83.79
2023-03-26T07:17:51.000Z,83.74
2023-03-26T07:18:53.000Z,83.61
2023-03-26T07:19:52.000Z,83.81
2023-03-26T07:20:52.000Z,83.86
2023-03-26T07:21:52.000Z,83.98
2023-03-26T07:22:52.000Z,84.40
2023-03-26T07:23:51.000Z,84.51
2023-03-26T07:24:52.000Z,84.63
2023-03-26T07:25:52.000Z,84.96
2023-03-26T07:27:01.000Z,84.86
2023-03-26T07:28:02.000Z,85.09
2023-03-26T07:29:03.000Z,85.26
2023-03-26T07:30:00.000Z,85.12
2023-03-26T07:31:01.000Z,85.35
2023-03-26T07:32:14.000Z,85.17
2023-03-26T07:33:01.000Z,85.35
2023-03-26T07:34:02.000Z,85.24
2023-03-26T07:34:59.000Z,85.66
2023-03-26T07:36:05.000Z,85.35
2023-03-26T07:37:02.000Z,85.46
2023-03-26T07:38:02.000Z,85.47
2023-03-26T07:39:04.000Z,85.40
2023-03-26T07:40:07.000Z,85.40
2023-03-26T07:41:01.000Z,85.25
2023-03-26T07:42:14.000Z,85.46
2023-03-26T07:43:05.000Z,85.45
2023-03-26T07:44:11.000Z,85.48
2023-03-26T07:45:07.000Z,85.51
2023-03-26T07:45:52.000Z,85.61
2023-03-26T07:46:52.000Z,85.40
2023-03-26T07:47:52.000Z,85.83
2023-03-26T07:48:53.000Z,85.85
2023-03-26T07:49:52.000Z,86.11
2023-03-26T07:50:52.000Z,86.20
2023-03-26T07:51:51.000Z,86.25
2023-03-26T07:52:51.000Z,86.20
2023-03-26T07:53:51.000Z,86.25
2023-03-26T07:54:52.000Z,86.04
2023-03-26T07:56:00.000Z,85.96
2023-03-26T07:57:01.000Z,86.49
2023-03-26T07:58:11.000Z,86.82
2023-03-26T07:59:09.000Z,86.36
2023-03-26T07:59:57.000Z,87.10
2023-03-26T08:01:12.000Z,86.88
2023-03-26T08:02:15.000Z,86.80
2023-03-26T08:03:01.000Z,86.92
2023-03-26T08:04:14.000Z,86.78
2023-03-26T08:05:05.000Z,87.01
2023-03-26T08:06:13.000Z,86.97
2023-03-26T08:07:00.000Z,86.99
2023-03-26T08:08:05.000Z,86.96
2023-03-26T08:09:01.000Z,87.15
2023-03-26T08:10:04.000Z,87.33
2023-03-26T08:11:01.000Z,87.29
2023-03-26T08:12:01.000Z,87.59
2023-03-26T08:13:01.000Z,88.00
2023-03-26T08:14:01.000Z,87.62
2023-03-26T08:15:03.000Z,87.63
2023-03-26T08:16:14.000Z,87.79
2023-03-26T08:17:11.000Z,87.82
2023-03-26T08:18:14.000Z,87.80
2023-03-26T08:19:13.000Z,88.23
2023-03-26T08:20:20.000Z,87.96
2023-03-26T08:20:59.000Z,88.19
2023-03-26T08:21:56.000Z,88.24
2023-03-26T08:23:12.000Z,88.24
2023-03-26T08:24:02.000Z,88.41
2023-03-26T08:25:02.000Z,87.98
2023-03-26T08:26:03.000Z,88.21
2023-03-26T08:27:00.000Z,88.28
2023-03-26T08:28:01.000Z,88.70
2023-03-26T08:29:06.000Z,88.57
2023-03-26T08:30:06.000Z,88.64
2023-03-26T08:30:53.000Z,88.45
2023-03-26T08:31:52.000Z,88.40
2023-03-26T08:33:11.000Z,88.37
2023-03-26T08:33:51.000Z,88.33
2023-03-26T08:34:51.000Z,88.49
2023-03-26T08:35:51.000Z,89.00
2023-03-26T08:36:51.000Z,88.47
2023-03-26T08:37:52.000Z,87.82
2023-03-26T08:38:52.000Z,87.59
2023-03-26T08:39:52.000Z,87.40
2023-03-26T08:41:02.000Z,88.17
2023-03-26T08:42:22.000Z,87.92
2023-03-26T08:43:05.000Z,88.46
2023-03-26T08:44:08.000Z,88.34
2023-03-26T08:45:11.000Z,87.92
2023-03-26T08:46:12.000Z,88.18
2023-03-26T08:47:14.000Z,87.59
2023-03-26T08:48:07.000Z,87.87
2023-03-26T08:49:03.000Z,87.82
2023-03-26T08:50:06.000Z,87.38
2023-03-26T08:51:12.000Z,87.58
2023-03-26T08:52:22.000Z,87.93
2023-03-26T08:53:02.000Z,88.89
2023-03-26T08:54:28.000Z,88.61
2023-03-26T08:55:15.000Z,88.51
2023-03-26T08:55:59.000Z,87.86
2023-03-26T08:57:02.000Z,88.13
2023-03-26T08:58:02.000Z,87.73
2023-03-26T08:59:18.000Z,87.77
2023-03-26T09:00:12.000Z,87.73
2023-03-26T09:01:02.000Z,87.49
2023-03-26T09:02:12.000Z,88.12
2023-03-26T09:03:23.000Z,87.65
2023-03-26T09:04:05.000Z,88.39
2023-03-26T09:05:17.000Z,88.45
2023-03-26T09:06:02.000Z,88.41
2023-03-26T09:07:12.000Z,88.63
2023-03-26T09:08:01.000Z,89.13
2023-03-26T09:09:01.000Z,89.57
2023-03-26T09:10:11.000Z,89.45
2023-03-26T09:11:19.000Z,88.62
2023-03-26T09:12:15.000Z,88.77
2023-03-26T09:13:02.000Z,88.92
2023-03-26T09:14:01.000Z,89.50
2023-03-26T09:15:01.000Z,89.39
2023-03-26T09:16:01.000Z,89.61
2023-03-26T09:17:02.000Z,89.55
2023-03-26T09:18:14.000Z,89.92
2023-03-26T09:19:24.000Z,89.76
2023-03-26T09:20:14.000Z,89.40
2023-03-26T09:21:01.000Z,89.24
2023-03-26T09:22:11.000Z,89.54
2023-03-26T09:23:12.000Z,90.10
2023-03-26T09:24:01.000Z,89.87
2023-03-26T09:25:12.000Z,89.98
2023-03-26T09:26:02.000Z,90.10
2023-03-26T09:27:01.000Z,90.26
2023-03-26T09:28:14.000Z,89.75
2023-03-26T09:29:12.000Z,89.50
2023-03-26T09:30:01.000Z,89.69
2023-03-26T09:31:01.000Z,90.40
2023-03-26T09:32:19.000Z,89.79
2023-03-26T09:33:06.000Z,89.53
2023-03-26T09:34:02.000Z,89.76
2023-03-26T09:35:06.000Z,89.36
2023-03-26T09:36:17.000Z,89.38
2023-03-26T09:37:14.000Z,89.55
2023-03-26T09:38:09.000Z,89.54
2023-03-26T09:39:05.000Z,89.71
2023-03-26T09:40:02.000Z,89.63
2023-03-26T09:41:03.000Z,89.58
2023-03-26T09:42:01.000Z,89.80
2023-03-26T09:43:14.000Z,89.80
2023-03-26T09:44:03.000Z,89.23
2023-03-26T09:45:11.000Z,89.08
2023-03-26T09:46:14.000Z,88.70
2023-03-26T09:47:01.000Z,88.67
2023-03-26T09:48:01.000Z,88.75
2023-03-26T09:49:12.000Z,88.56
2023-03-26T09:50:01.000Z,88.53
2023-03-26T09:51:01.000Z,88.58
2023-03-26T09:52:22.000Z,88.68
2023-03-26T09:53:11.000Z,88.78
2023-03-26T09:54:14.000Z,88.49
2023-03-26T09:55:08.000Z,88.43
2023-03-26T09:56:03.000Z,88.54
2023-03-26T09:57:11.000Z,88.39
2023-03-26T09:58:03.000Z,88.81
2023-03-26T09:59:01.000Z,88.69
2023-03-26T10:00:11.000Z,88.82
2023-03-26T10:01:05.000Z,88.72
2023-03-26T10:02:01.000Z,88.71
2023-03-26T10:03:06.000Z,88.57
2023-03-26T10:04:04.000Z,88.82
2023-03-26T10:05:06.000Z,88.67
2023-03-26T10:06:01.000Z,88.64
2023-03-26T10:07:04.000Z,89.19
2023-03-26T10:08:08.000Z,88.97
2023-03-26T10:09:14.000Z,88.98
2023-03-26T10:10:02.000Z,88.73
2023-03-26T10:10:57.000Z,88.90
2023-03-26T10:12:10.000Z,89.55
2023-03-26T10:13:01.000Z,88.97
2023-03-26T10:14:02.000Z,89.17
2023-03-26T10:15:07.000Z,89.85
2023-03-26T10:16:11.000Z,89.65
2023-03-26T10:17:01.000Z,89.24
2023-03-26T10:18:03.000Z,88.80
2023-03-26T10:19:10.000Z,87.86
2023-03-26T10:20:11.000Z,86.67
2023-03-26T10:21:00.000Z,87.00
2023-03-26T10:22:01.000Z,87.01
2023-03-26T10:23:11.000Z,85.84
2023-03-26T10:24:02.000Z,85.65
2023-03-26T10:25:01.000Z,85.10
2023-03-26T10:26:13.000Z,85.09
2023-03-26T10:27:02.000Z,85.95
2023-03-26T10:28:01.000Z,85.55
2023-03-26T10:29:11.000Z,85.13
2023-03-26T10:30:01.000Z,85.25
2023-03-26T10:31:11.000Z,84.74
2023-03-26T10:32:01.000Z,85.51
2023-03-26T10:33:11.000Z,85.64
2023-03-26T10:34:11.000Z,86.49
2023-03-26T10:35:04.000Z,85.76
2023-03-26T10:36:01.000Z,85.83
2023-03-26T10:37:08.000Z,83.79
2023-03-26T10:38:11.000Z,83.74
2023-03-26T10:39:06.000Z,83.32
2023-03-26T10:40:01.000Z,83.78
2023-03-26T10:41:01.000Z,84.43
2023-03-26T10:42:09.000Z,84.10
2023-03-26T10:43:01.000Z,84.43
2023-03-26T10:44:01.000Z,84.17
2023-03-26T10:45:01.000Z,83.25
2023-03-26T10:46:01.000Z,84.24
2023-03-26T10:47:09.000Z,84.26
2023-03-26T10:48:14.000Z,84.35
2023-03-26T10:49:05.000Z,84.10
2023-03-26T10:50:01.000Z,83.68
2023-03-26T10:51:02.000Z,82.64
2023-03-26T10:51:59.000Z,83.17
2023-03-26T10:53:01.000Z,83.27
2023-03-26T10:53:59.000Z,82.56
2023-03-26T10:54:56.000Z,84.43
2023-03-26T10:56:05.000Z,84.28
2023-03-26T10:56:53.000Z,84.44
2023-03-26T10:57:56.000Z,84.70
2023-03-26T10:58:53.000Z,85.18
2023-03-26T10:59:59.000Z,85.31
2023-03-26T11:01:00.000Z,85.40
2023-03-26T11:02:11.000Z,85.60
2023-03-26T11:03:08.000Z,85.72
2023-03-26T11:03:54.000Z,86.33
2023-03-26T11:05:02.000Z,86.29
2023-03-26T11:06:01.000Z,85.81
2023-03-26T11:07:14.000Z,85.87
2023-03-26T11:08:04.000Z,86.86
2023-03-26T11:09:07.000Z,87.26
2023-03-26T11:10:14.000Z,87.62
2023-03-26T11:11:03.000Z,88.19
2023-03-26T11:12:03.000Z,87.85
2023-03-26T11:13:16.000Z,87.01
2023-03-26T11:14:01.000Z,87.96
2023-03-26T11:15:05.000Z,86.15
2023-03-26T11:16:01.000Z,85.90
2023-03-26T11:17:12.000Z,85.60
2023-03-26T11:18:06.000Z,85.29
2023-03-26T11:19:15.000Z,84.72
2023-03-26T11:20:16.000Z,84.50
2023-03-26T11:21:04.000Z,85.27
2023-03-26T11:22:04.000Z,84.32
2023-03-26T11:23:03.000Z,83.75
2023-03-26T11:24:01.000Z,82.60
2023-03-26T11:25:03.000Z,82.39
2023-03-26T11:26:15.000Z,82.53
2023-03-26T11:26:58.000Z,83.49
2023-03-26T11:28:12.000Z,83.91
2023-03-26T11:29:01.000Z,81.98
2023-03-26T11:30:01.000Z,81.23
2023-03-26T11:30:59.000Z,81.35
2023-03-26T11:32:07.000Z,80.63
2023-03-26T11:32:58.000Z,79.95
2023-03-26T11:33:59.000Z,80.25
2023-03-26T11:35:01.000Z,81.47
2023-03-26T11:35:56.000Z,80.80
2023-03-26T11:36:56.000Z,80.41
2023-03-26T11:37:54.000Z,80.78
2023-03-26T11:38:55.000Z,80.65
2023-03-26T11:39:53.000Z,80.19
2023-03-26T11:40:54.000Z,79.92
2023-03-26T11:42:02.000Z,79.21
2023-03-26T11:43:04.000Z,79.47
2023-03-26T11:43:59.000Z,79.72
2023-03-26T11:44:55.000Z,78.72
2023-03-26T11:45:52.000Z,78.30
2023-03-26T11:46:56.000Z,79.08
2023-03-26T11:47:57.000Z,77.15
2023-03-26T11:48:55.000Z,76.28
2023-03-26T11:49:55.000Z,73.92
2023-03-26T11:50:58.000Z,73.34
2023-03-26T11:51:51.000Z,71.44
2023-03-26T11:52:56.000Z,70.20
2023-03-26T11:53:52.000Z,72.03
2023-03-26T11:54:51.000Z,69.80
2023-03-26T11:56:05.000Z,70.26
2023-03-26T11:57:12.000Z,71.77
2023-03-26T11:57:56.000Z,71.48
2023-03-26T11:58:56.000Z,71.37
2023-03-26T12:00:00.000Z,71.01
2023-03-26T12:00:52.000Z,71.47
2023-03-26T12:02:01.000Z,71.91
2023-03-26T12:02:56.000Z,70.05
2023-03-26T12:04:12.000Z,70.63
2023-03-26T12:05:10.000Z,69.64
2023-03-26T12:05:56.000Z,68.80
2023-03-26T12:06:57.000Z,67.87
2023-03-26T12:07:57.000Z,67.84
2023-03-26T12:08:51.000Z,66.33
2023-03-26T12:09:55.000Z,66.75
2023-03-26T12:10:58.000Z,67.50
2023-03-26T12:11:58.000Z,66.36
2023-03-26T12:12:58.000Z,64.88
2023-03-26T12:13:58.000Z,65.82
2023-03-26T12:14:52.000Z,65.41
2023-03-26T12:15:57.000Z,65.40
2023-03-26T12:17:01.000Z,63.53
2023-03-26T12:17:56.000Z,63.14
2023-03-26T12:18:58.000Z,62.36
2023-03-26T12:19:52.000Z,61.34
2023-03-26T12:21:02.000Z,60.28
2023-03-26T12:21:52.000Z,62.02
2023-03-26T12:22:54.000Z,61.55
2023-03-26T12:24:02.000Z,60.25
2023-03-26T12:25:01.000Z,60.37
2023-03-26T12:26:18.000Z,61.01
2023-03-26T12:27:03.000Z,60.28
2023-03-26T12:28:12.000Z,61.89
2023-03-26T12:28:51.000Z,61.81
2023-03-26T12:30:07.000Z,61.56
2023-03-26T12:31:02.000Z,61.42
2023-03-26T12:32:13.000Z,62.39
2023-03-26T12:32:57.000Z,62.62
2023-03-26T12:34:02.000Z,62.31
2023-03-26T12:34:51.000Z,60.40
2023-03-26T12:35:53.000Z,59.64
2023-03-26T12:36:54.000Z,61.18
2023-03-26T12:37:53.000Z,58.32
2023-03-26T12:38:53.000Z,56.74
2023-03-26T12:38:53.000Z,56.74
2023-03-26T12:40:35.000Z,56.56
2023-03-26T12:41:02.000Z,56.70
2023-03-26T12:41:57.000Z,55.13
2023-03-26T12:41:57.000Z,55.13
2023-03-26T12:41:57.000Z,55.13
2023-03-26T12:41:57.000Z,55.13
2023-03-26T12:43:29.000Z,54.98
2023-03-26T12:43:29.000Z,54.98
2023-03-26T12:44:32.000Z,54.03
2023-03-26T12:45:01.000Z,52.61
2023-03-26T12:45:55.000Z,53.13
2023-03-26T12:45:55.000Z,53.13
2023-03-26T12:45:55.000Z,53.13